Stanley, United Kingdom
Current Conditions -  °F | °C
As of 2:20 PM on Friday 31 Oct 2014 (Local Time) from EGNT Reporting Station
Few Clouds Few Clouds  
Wind Chill: 18°   Ceiling: Unl
Heat Index: 18°   Visibility: 5mi
Dew Point: 15°   Wind: 6mph
Humidity: 83%   Direction: 150°SSE
Pressure: 29.77"   Gusts: NA
Location:  54.87°N, 1.7°W
Report Text: EGNT 311420Z 15005KT 090V210 8000 FEW022 18/15 Q1008
Loading
Personal Weather Stations






























Interactive Weather Map
Tropical Storm Tracking
New forecast layout! Learn more

10-Day Weather Forecast

Advertisements
Track Severe Weather on mobile